Buies Creek, North Carolina
Current Conditions -  °F | °C
As of 8:35 AM on Saturday 20 Dec 2014 (Local Time) from KHRJ Reporting Station
Light Rain Light Rain  
Wind Chill: 33°   Ceiling: 7000
Heat Index: 38°   Visibility: 10mi
Dew Point: 32°   Wind: 7mph
Humidity: 77%   Direction: 40°NE
Pressure: 30.28"   Gusts: NA
Location:  35.41°N, 78.74°W
Report Text: KHRJ 201335Z AUTO 04006KT 10SM -RA BKN070 OVC080 04/00 A3028 RMK AO2 T00351001
Loading
Personal Weather Stations






























Interactive Weather Map New forecast layout! Learn more

10-Day Weather Forecast

Advertisements
Track Severe Weather on mobile